Terminal Aerodrome Forecast
Issued by NWS Cleveland, OH

Home | Current Version | Previous Version | Text Only | Print | Product List | Glossary On
Versions: 1 2 3 4 5 6 7 8 9 10 11 12 13 14 15 16 17 18 19 20
000
FTUS41 KCLE 242336
TAFERI
TAF
KERI 242336Z 2500/2524 19012KT P6SM SCT045 BKN200
     FM250800 19014KT P6SM -SHRA VCTS SCT045CB BKN150
      TEMPO 2509/2512 26020G30KT 3SM TSRA BKN015CB
     FM251300 23015G25KT P6SM -SHRA BKN015
     FM251800 24015G25KT P6SM SCT010 BKN040=

USA.gov is the U.S. government's official web portal to all federal, state and local government web resources and services.